Main page
METAR-TAF:

METAR-TAF

Airports :

Verona Villafranca Airport

Verona, Italy

latitude: 45-23N, longitude: 010-52E, elevation: 67 m

Current weather observation

The report was made 14 minutes ago, at 19:50 UTC
Wind 3 kt from the Southeast
Temperature 5°C
Humidity 100%
Pressure 1017 hPa
Visibility: 2500 m
Scattered clouds at a height of 5500 ft
Shallow fog

METAR: LIPX 271950Z 14003KT 2500 MIFG SCT055 05/05 Q1017

Time: 21:04 (20:04 UTC)

Forecast

The report was made 3 hours and 4 minutes ago, at 17:00 UTC
Forecast valid from 27 at 18 UTC to 28 at 03 UTC
Wind 5 kt from variable directions
Visibility: 4000 m
Broken clouds at a height of 5000 ft
mist
Temporary
from 27 at 21 UTC to 28 at 03 UTC
rain

TAF: LIPX 271700Z 2718/2803 VRB05KT 4000 BR BKN050 TEMPO 2721/2803 RA

Weather observations and forecasts of more than 4000 airports (METAR and TAF reports).

The available stations are represented by yellow and red dots on the map.

Hover mouse over dot to see the name of the station.

Then click to see weather observations and forecasts.

To change the map : click on the green buttons with a black cross to zoom in, on the green button with a dash to zoom out, or on the green arrows for adjacent maps.


METAR-TAF: